sensor_id;sensor_type;location;lat;lon;timestamp;temperature;humidity
21171;DHT22;10743;52.160;20.910;2023-06-26T00:00:54;30.40;38.60
21171;DHT22;10743;52.160;20.910;2023-06-26T00:03:22;30.40;38.80
21171;DHT22;10743;52.160;20.910;2023-06-26T00:05:49;30.40;38.90
21171;DHT22;10743;52.160;20.910;2023-06-26T00:08:17;30.30;38.90
21171;DHT22;10743;52.160;20.910;2023-06-26T00:10:44;30.20;38.90
21171;DHT22;10743;52.160;20.910;2023-06-26T00:13:13;30.20;39.10
21171;DHT22;10743;52.160;20.910;2023-06-26T00:15:40;30.20;39.00
21171;DHT22;10743;52.160;20.910;2023-06-26T00:18:07;30.20;39.10
21171;DHT22;10743;52.160;20.910;2023-06-26T00:20:34;30.10;39.10
21171;DHT22;10743;52.160;20.910;2023-06-26T00:23:01;30.10;39.20
21171;DHT22;10743;52.160;20.910;2023-06-26T00:25:30;30.10;39.30
21171;DHT22;10743;52.160;20.910;2023-06-26T00:27:57;30.10;39.40
21171;DHT22;10743;52.160;20.910;2023-06-26T00:30:25;30.10;39.60
21171;DHT22;10743;52.160;20.910;2023-06-26T00:32:52;30.00;39.50
21171;DHT22;10743;52.160;20.910;2023-06-26T00:35:19;30.00;39.60
21171;DHT22;10743;52.160;20.910;2023-06-26T00:37:46;30.00;39.70
21171;DHT22;10743;52.160;20.910;2023-06-26T00:40:13;30.00;39.80
21171;DHT22;10743;52.160;20.910;2023-06-26T00:42:40;29.90;39.80
21171;DHT22;10743;52.160;20.910;2023-06-26T00:45:08;29.90;39.90
21171;DHT22;10743;52.160;20.910;2023-06-26T00:47:35;29.90;39.90
21171;DHT22;10743;52.160;20.910;2023-06-26T00:50:04;29.80;39.90
21171;DHT22;10743;52.160;20.910;2023-06-26T00:52:32;29.80;40.00
21171;DHT22;10743;52.160;20.910;2023-06-26T00:54:59;29.80;40.00
21171;DHT22;10743;52.160;20.910;2023-06-26T00:57:27;29.70;40.10
21171;DHT22;10743;52.160;20.910;2023-06-26T00:59:54;29.70;40.10
21171;DHT22;10743;52.160;20.910;2023-06-26T01:02:21;29.70;40.10
21171;DHT22;10743;52.160;20.910;2023-06-26T01:04:50;29.70;40.10
21171;DHT22;10743;52.160;20.910;2023-06-26T01:07:18;29.60;40.10
21171;DHT22;10743;52.160;20.910;2023-06-26T01:09:48;29.60;40.20
21171;DHT22;10743;52.160;20.910;2023-06-26T01:12:15;29.60;40.20
21171;DHT22;10743;52.160;20.910;2023-06-26T01:14:42;29.60;40.30
21171;DHT22;10743;52.160;20.910;2023-06-26T01:17:10;29.60;40.30
21171;DHT22;10743;52.160;20.910;2023-06-26T01:19:42;29.60;40.30
21171;DHT22;10743;52.160;20.910;2023-06-26T01:25:17;29.60;40.30
21171;DHT22;10743;52.160;20.910;2023-06-26T01:27:50;29.60;40.50
21171;DHT22;10743;52.160;20.910;2023-06-26T01:30:18;29.50;40.50
21171;DHT22;10743;52.160;20.910;2023-06-26T01:32:46;29.50;40.60
21171;DHT22;10743;52.160;20.910;2023-06-26T01:35:15;29.50;40.60
21171;DHT22;10743;52.160;20.910;2023-06-26T01:37:42;29.50;40.70
21171;DHT22;10743;52.160;20.910;2023-06-26T01:40:10;29.50;40.70
21171;DHT22;10743;52.160;20.910;2023-06-26T01:42:39;29.50;40.80
21171;DHT22;10743;52.160;20.910;2023-06-26T01:45:21;29.40;40.70
21171;DHT22;10743;52.160;20.910;2023-06-26T01:47:52;29.40;41.40
21171;DHT22;10743;52.160;20.910;2023-06-26T01:50:25;29.30;40.80
21171;DHT22;10743;52.160;20.910;2023-06-26T01:55:46;29.30;40.90
21171;DHT22;10743;52.160;20.910;2023-06-26T01:58:17;29.20;40.80
21171;DHT22;10743;52.160;20.910;2023-06-26T02:00:47;29.20;40.90
21171;DHT22;10743;52.160;20.910;2023-06-26T02:03:14;29.20;40.90
21171;DHT22;10743;52.160;20.910;2023-06-26T02:05:42;29.20;40.90
21171;DHT22;10743;52.160;20.910;2023-06-26T02:08:09;29.20;40.90
21171;DHT22;10743;52.160;20.910;2023-06-26T02:10:36;29.20;40.80
21171;DHT22;10743;52.160;20.910;2023-06-26T02:13:04;29.10;40.90
21171;DHT22;10743;52.160;20.910;2023-06-26T02:15:31;29.10;40.90
21171;DHT22;10743;52.160;20.910;2023-06-26T02:17:59;29.10;40.90
21171;DHT22;10743;52.160;20.910;2023-06-26T02:20:26;29.10;41.00
21171;DHT22;10743;52.160;20.910;2023-06-26T02:22:53;29.00;41.00
21171;DHT22;10743;52.160;20.910;2023-06-26T02:25:20;29.00;41.00
21171;DHT22;10743;52.160;20.910;2023-06-26T02:27:47;29.00;41.00
21171;DHT22;10743;52.160;20.910;2023-06-26T02:30:14;29.00;41.00
21171;DHT22;10743;52.160;20.910;2023-06-26T02:32:42;29.00;41.00
21171;DHT22;10743;52.160;20.910;2023-06-26T02:35:10;29.00;41.10
21171;DHT22;10743;52.160;20.910;2023-06-26T02:37:41;28.90;41.00
21171;DHT22;10743;52.160;20.910;2023-06-26T02:40:09;28.90;41.10
21171;DHT22;10743;52.160;20.910;2023-06-26T02:42:38;28.90;41.10
21171;DHT22;10743;52.160;20.910;2023-06-26T02:45:05;28.90;41.10
21171;DHT22;10743;52.160;20.910;2023-06-26T02:47:33;28.90;41.20
21171;DHT22;10743;52.160;20.910;2023-06-26T02:50:00;28.90;41.20
21171;DHT22;10743;52.160;20.910;2023-06-26T02:52:36;28.80;41.20
21171;DHT22;10743;52.160;20.910;2023-06-26T02:55:04;28.80;41.20
21171;DHT22;10743;52.160;20.910;2023-06-26T02:57:32;28.80;41.20
21171;DHT22;10743;52.160;20.910;2023-06-26T02:59:59;28.80;41.20
21171;DHT22;10743;52.160;20.910;2023-06-26T03:02:28;28.80;41.20
21171;DHT22;10743;52.160;20.910;2023-06-26T03:04:56;28.80;41.30
21171;DHT22;10743;52.160;20.910;2023-06-26T03:07:24;28.80;41.30
21171;DHT22;10743;52.160;20.910;2023-06-26T03:09:51;28.80;41.40
21171;DHT22;10743;52.160;20.910;2023-06-26T03:12:18;28.80;41.50
21171;DHT22;10743;52.160;20.910;2023-06-26T03:14:46;28.80;41.50
21171;DHT22;10743;52.160;20.910;2023-06-26T03:17:13;28.80;41.70
21171;DHT22;10743;52.160;20.910;2023-06-26T03:19:43;28.80;41.80
21171;DHT22;10743;52.160;20.910;2023-06-26T03:22:21;28.80;41.80
21171;DHT22;10743;52.160;20.910;2023-06-26T03:24:48;28.80;41.90
21171;DHT22;10743;52.160;20.910;2023-06-26T03:27:16;28.90;42.00
21171;DHT22;10743;52.160;20.910;2023-06-26T03:29:46;28.90;42.00
21171;DHT22;10743;52.160;20.910;2023-06-26T03:32:14;28.90;42.00
21171;DHT22;10743;52.160;20.910;2023-06-26T03:34:41;28.90;42.00
21171;DHT22;10743;52.160;20.910;2023-06-26T03:37:08;28.90;42.00
21171;DHT22;10743;52.160;20.910;2023-06-26T03:39:35;29.00;42.10
21171;DHT22;10743;52.160;20.910;2023-06-26T03:42:02;29.00;41.90
21171;DHT22;10743;52.160;20.910;2023-06-26T03:44:29;29.00;41.80
21171;DHT22;10743;52.160;20.910;2023-06-26T03:46:57;29.00;41.80
21171;DHT22;10743;52.160;20.910;2023-06-26T03:49:24;29.00;41.80
21171;DHT22;10743;52.160;20.910;2023-06-26T03:51:52;29.10;41.80
21171;DHT22;10743;52.160;20.910;2023-06-26T03:54:19;29.10;42.00
21171;DHT22;10743;52.160;20.910;2023-06-26T03:56:47;29.10;42.50
21171;DHT22;10743;52.160;20.910;2023-06-26T03:59:14;29.20;42.00
21171;DHT22;10743;52.160;20.910;2023-06-26T04:01:42;29.20;41.90
21171;DHT22;10743;52.160;20.910;2023-06-26T04:04:09;29.20;41.90
21171;DHT22;10743;52.160;20.910;2023-06-26T04:06:36;29.20;42.00
21171;DHT22;10743;52.160;20.910;2023-06-26T04:09:03;29.30;42.10
21171;DHT22;10743;52.160;20.910;2023-06-26T04:11:31;29.30;42.00
21171;DHT22;10743;52.160;20.910;2023-06-26T04:13:58;29.40;42.10
21171;DHT22;10743;52.160;20.910;2023-06-26T04:16:26;29.40;42.00
21171;DHT22;10743;52.160;20.910;2023-06-26T04:18:53;29.40;42.10
21171;DHT22;10743;52.160;20.910;2023-06-26T04:21:23;29.50;42.10
21171;DHT22;10743;52.160;20.910;2023-06-26T04:23:53;29.50;42.10
21171;DHT22;10743;52.160;20.910;2023-06-26T04:26:20;29.60;42.10
21171;DHT22;10743;52.160;20.910;2023-06-26T04:28:47;29.60;42.00
21171;DHT22;10743;52.160;20.910;2023-06-26T04:31:14;29.60;42.10
21171;DHT22;10743;52.160;20.910;2023-06-26T04:33:42;29.70;42.10
21171;DHT22;10743;52.160;20.910;2023-06-26T04:36:09;29.70;42.00
21171;DHT22;10743;52.160;20.910;2023-06-26T04:38:38;29.80;42.00
21171;DHT22;10743;52.160;20.910;2023-06-26T04:41:05;29.80;42.00
21171;DHT22;10743;52.160;20.910;2023-06-26T04:43:32;29.90;42.10
21171;DHT22;10743;52.160;20.910;2023-06-26T04:45:59;29.90;42.00
21171;DHT22;10743;52.160;20.910;2023-06-26T04:48:26;30.00;41.90
21171;DHT22;10743;52.160;20.910;2023-06-26T04:50:55;30.00;42.10
21171;DHT22;10743;52.160;20.910;2023-06-26T04:53:23;30.10;42.00
21171;DHT22;10743;52.160;20.910;2023-06-26T04:55:51;30.10;42.00
21171;DHT22;10743;52.160;20.910;2023-06-26T04:58:19;30.20;42.10
21171;DHT22;10743;52.160;20.910;2023-06-26T05:00:46;30.30;42.20
21171;DHT22;10743;52.160;20.910;2023-06-26T05:03:15;30.40;42.30
21171;DHT22;10743;52.160;20.910;2023-06-26T05:05:44;30.40;42.20
21171;DHT22;10743;52.160;20.910;2023-06-26T05:08:16;30.50;42.10
21171;DHT22;10743;52.160;20.910;2023-06-26T05:10:45;30.50;42.20
21171;DHT22;10743;52.160;20.910;2023-06-26T05:13:12;30.60;42.10
21171;DHT22;10743;52.160;20.910;2023-06-26T05:15:42;30.70;42.00
21171;DHT22;10743;52.160;20.910;2023-06-26T05:18:09;30.70;42.10
21171;DHT22;10743;52.160;20.910;2023-06-26T05:20:36;30.80;42.00
21171;DHT22;10743;52.160;20.910;2023-06-26T05:23:05;30.80;41.90
21171;DHT22;10743;52.160;20.910;2023-06-26T05:25:32;30.90;41.80
21171;DHT22;10743;52.160;20.910;2023-06-26T05:28:03;31.00;41.60
21171;DHT22;10743;52.160;20.910;2023-06-26T05:30:35;31.10;41.40
21171;DHT22;10743;52.160;20.910;2023-06-26T05:33:03;31.20;41.10
21171;DHT22;10743;52.160;20.910;2023-06-26T05:35:34;31.20;40.90
21171;DHT22;10743;52.160;20.910;2023-06-26T05:38:03;31.30;41.60
21171;DHT22;10743;52.160;20.910;2023-06-26T05:40:30;31.40;41.00
21171;DHT22;10743;52.160;20.910;2023-06-26T05:42:58;31.50;40.90
21171;DHT22;10743;52.160;20.910;2023-06-26T05:45:25;31.60;41.00
21171;DHT22;10743;52.160;20.910;2023-06-26T05:47:52;31.70;41.00
21171;DHT22;10743;52.160;20.910;2023-06-26T05:50:19;31.70;40.70
21171;DHT22;10743;52.160;20.910;2023-06-26T05:52:47;31.80;40.30
21171;DHT22;10743;52.160;20.910;2023-06-26T05:55:15;31.90;40.30
21171;DHT22;10743;52.160;20.910;2023-06-26T05:57:42;32.00;40.00
21171;DHT22;10743;52.160;20.910;2023-06-26T06:00:10;32.10;39.90
21171;DHT22;10743;52.160;20.910;2023-06-26T06:02:42;32.20;39.90
21171;DHT22;10743;52.160;20.910;2023-06-26T06:05:09;32.20;39.70
21171;DHT22;10743;52.160;20.910;2023-06-26T06:07:37;32.30;39.40
21171;DHT22;10743;52.160;20.910;2023-06-26T06:10:04;32.40;39.20
21171;DHT22;10743;52.160;20.910;2023-06-26T06:12:32;32.50;39.20
21171;DHT22;10743;52.160;20.910;2023-06-26T06:14:59;32.60;39.30
21171;DHT22;10743;52.160;20.910;2023-06-26T06:17:26;32.70;38.50
21171;DHT22;10743;52.160;20.910;2023-06-26T06:19:53;32.70;38.40
21171;DHT22;10743;52.160;20.910;2023-06-26T06:22:20;32.80;38.10
21171;DHT22;10743;52.160;20.910;2023-06-26T06:24:49;32.90;38.10
21171;DHT22;10743;52.160;20.910;2023-06-26T06:27:18;33.00;38.30
21171;DHT22;10743;52.160;20.910;2023-06-26T06:29:45;33.00;38.40
21171;DHT22;10743;52.160;20.910;2023-06-26T06:32:12;33.10;38.30
21171;DHT22;10743;52.160;20.910;2023-06-26T06:34:39;33.20;38.50
21171;DHT22;10743;52.160;20.910;2023-06-26T06:37:06;33.30;38.20
21171;DHT22;10743;52.160;20.910;2023-06-26T06:39:33;33.40;37.90
21171;DHT22;10743;52.160;20.910;2023-06-26T06:42:00;33.50;37.60
21171;DHT22;10743;52.160;20.910;2023-06-26T06:44:27;33.50;37.30
21171;DHT22;10743;52.160;20.910;2023-06-26T06:46:54;33.60;36.80
21171;DHT22;10743;52.160;20.910;2023-06-26T06:49:21;33.70;35.70
21171;DHT22;10743;52.160;20.910;2023-06-26T06:51:48;33.80;36.10
21171;DHT22;10743;52.160;20.910;2023-06-26T06:54:16;33.90;36.00
21171;DHT22;10743;52.160;20.910;2023-06-26T06:56:43;33.90;36.00
21171;DHT22;10743;52.160;20.910;2023-06-26T06:59:11;34.00;35.90
21171;DHT22;10743;52.160;20.910;2023-06-26T07:01:39;34.00;36.30
21171;DHT22;10743;52.160;20.910;2023-06-26T07:04:07;34.10;36.30
21171;DHT22;10743;52.160;20.910;2023-06-26T07:06:34;34.20;36.40
21171;DHT22;10743;52.160;20.910;2023-06-26T07:09:01;34.30;36.30
21171;DHT22;10743;52.160;20.910;2023-06-26T07:11:29;34.40;36.00
21171;DHT22;10743;52.160;20.910;2023-06-26T07:13:57;34.40;35.90
21171;DHT22;10743;52.160;20.910;2023-06-26T07:16:24;34.50;35.70
21171;DHT22;10743;52.160;20.910;2023-06-26T07:18:51;34.60;35.50
21171;DHT22;10743;52.160;20.910;2023-06-26T07:21:18;34.70;35.20
21171;DHT22;10743;52.160;20.910;2023-06-26T07:23:46;34.70;35.30
21171;DHT22;10743;52.160;20.910;2023-06-26T07:26:14;34.80;35.00
21171;DHT22;10743;52.160;20.910;2023-06-26T07:28:42;34.90;34.50
21171;DHT22;10743;52.160;20.910;2023-06-26T07:31:09;35.00;34.90
21171;DHT22;10743;52.160;20.910;2023-06-26T07:33:36;35.10;34.40
21171;DHT22;10743;52.160;20.910;2023-06-26T07:36:04;35.10;34.40
21171;DHT22;10743;52.160;20.910;2023-06-26T07:38:31;35.10;34.30
21171;DHT22;10743;52.160;20.910;2023-06-26T07:40:59;35.20;34.10
21171;DHT22;10743;52.160;20.910;2023-06-26T07:43:26;35.30;33.60
21171;DHT22;10743;52.160;20.910;2023-06-26T07:45:53;35.30;33.20
21171;DHT22;10743;52.160;20.910;2023-06-26T07:48:20;35.40;33.60
21171;DHT22;10743;52.160;20.910;2023-06-26T07:50:47;35.40;33.00
21171;DHT22;10743;52.160;20.910;2023-06-26T07:53:14;35.50;32.90
21171;DHT22;10743;52.160;20.910;2023-06-26T07:55:42;35.60;32.70
21171;DHT22;10743;52.160;20.910;2023-06-26T07:58:09;35.70;32.80
21171;DHT22;10743;52.160;20.910;2023-06-26T08:00:36;35.70;32.80
21171;DHT22;10743;52.160;20.910;2023-06-26T08:03:04;35.80;33.20
21171;DHT22;10743;52.160;20.910;2023-06-26T08:05:36;35.80;32.70
21171;DHT22;10743;52.160;20.910;2023-06-26T08:08:03;35.90;33.10
21171;DHT22;10743;52.160;20.910;2023-06-26T08:10:30;36.00;32.70
21171;DHT22;10743;52.160;20.910;2023-06-26T08:12:57;36.10;32.40
21171;DHT22;10743;52.160;20.910;2023-06-26T08:15:25;36.20;32.10
21171;DHT22;10743;52.160;20.910;2023-06-26T08:17:52;36.30;31.80
21171;DHT22;10743;52.160;20.910;2023-06-26T08:20:19;36.40;32.20
21171;DHT22;10743;52.160;20.910;2023-06-26T08:22:47;36.40;31.90
21171;DHT22;10743;52.160;20.910;2023-06-26T08:25:16;36.50;31.90
21171;DHT22;10743;52.160;20.910;2023-06-26T08:27:43;36.50;31.30
21171;DHT22;10743;52.160;20.910;2023-06-26T08:30:10;36.60;31.30
21171;DHT22;10743;52.160;20.910;2023-06-26T08:32:37;36.70;31.00
21171;DHT22;10743;52.160;20.910;2023-06-26T08:35:06;36.70;30.30
21171;DHT22;10743;52.160;20.910;2023-06-26T08:37:33;36.80;30.70
21171;DHT22;10743;52.160;20.910;2023-06-26T08:40:00;36.80;31.10
21171;DHT22;10743;52.160;20.910;2023-06-26T08:42:27;36.80;30.90
21171;DHT22;10743;52.160;20.910;2023-06-26T08:44:55;36.90;31.00
21171;DHT22;10743;52.160;20.910;2023-06-26T08:47:28;36.90;30.10
21171;DHT22;10743;52.160;20.910;2023-06-26T08:50:07;36.90;30.20
21171;DHT22;10743;52.160;20.910;2023-06-26T08:52:54;37.00;30.00
21171;DHT22;10743;52.160;20.910;2023-06-26T08:55:28;37.00;29.90
21171;DHT22;10743;52.160;20.910;2023-06-26T08:57:56;37.00;29.80
21171;DHT22;10743;52.160;20.910;2023-06-26T09:00:24;37.00;29.70
21171;DHT22;10743;52.160;20.910;2023-06-26T09:02:51;37.00;29.60
21171;DHT22;10743;52.160;20.910;2023-06-26T09:05:19;37.00;29.50
21171;DHT22;10743;52.160;20.910;2023-06-26T09:07:46;37.00;29.60
21171;DHT22;10743;52.160;20.910;2023-06-26T09:10:13;37.00;29.40
21171;DHT22;10743;52.160;20.910;2023-06-26T09:12:40;37.10;29.00
21171;DHT22;10743;52.160;20.910;2023-06-26T09:15:07;37.10;29.00
21171;DHT22;10743;52.160;20.910;2023-06-26T09:17:39;37.20;29.20
21171;DHT22;10743;52.160;20.910;2023-06-26T09:20:09;37.20;29.60
21171;DHT22;10743;52.160;20.910;2023-06-26T09:22:39;37.20;29.80
21171;DHT22;10743;52.160;20.910;2023-06-26T09:25:08;37.30;29.00
21171;DHT22;10743;52.160;20.910;2023-06-26T09:27:36;37.40;29.00
21171;DHT22;10743;52.160;20.910;2023-06-26T09:30:04;37.50;28.80
21171;DHT22;10743;52.160;20.910;2023-06-26T09:32:35;37.50;28.80
21171;DHT22;10743;52.160;20.910;2023-06-26T09:35:04;37.60;29.00
21171;DHT22;10743;52.160;20.910;2023-06-26T09:37:32;37.70;28.50
21171;DHT22;10743;52.160;20.910;2023-06-26T09:40:01;37.70;28.60
21171;DHT22;10743;52.160;20.910;2023-06-26T09:42:30;37.80;28.30
21171;DHT22;10743;52.160;20.910;2023-06-26T09:44:57;37.90;28.20
21171;DHT22;10743;52.160;20.910;2023-06-26T09:47:25;38.00;27.70
21171;DHT22;10743;52.160;20.910;2023-06-26T09:49:52;38.10;27.60
21171;DHT22;10743;52.160;20.910;2023-06-26T09:52:21;38.10;27.90
21171;DHT22;10743;52.160;20.910;2023-06-26T09:55:10;38.30;28.10
21171;DHT22;10743;52.160;20.910;2023-06-26T09:57:38;38.30;28.10
21171;DHT22;10743;52.160;20.910;2023-06-26T10:00:06;38.40;28.50
21171;DHT22;10743;52.160;20.910;2023-06-26T10:02:38;38.40;28.40
21171;DHT22;10743;52.160;20.910;2023-06-26T10:05:06;38.50;28.00
21171;DHT22;10743;52.160;20.910;2023-06-26T10:07:35;38.60;27.70
21171;DHT22;10743;52.160;20.910;2023-06-26T10:10:03;38.60;28.10
21171;DHT22;10743;52.160;20.910;2023-06-26T10:12:32;38.60;28.60
21171;DHT22;10743;52.160;20.910;2023-06-26T10:15:02;38.60;28.00
21171;DHT22;10743;52.160;20.910;2023-06-26T10:17:34;38.70;28.00
21171;DHT22;10743;52.160;20.910;2023-06-26T10:20:03;38.70;27.60
21171;DHT22;10743;52.160;20.910;2023-06-26T10:22:37;38.80;28.00
21171;DHT22;10743;52.160;20.910;2023-06-26T10:25:09;38.80;27.60
21171;DHT22;10743;52.160;20.910;2023-06-26T10:27:41;38.80;27.70
21171;DHT22;10743;52.160;20.910;2023-06-26T10:30:15;38.90;27.70
21171;DHT22;10743;52.160;20.910;2023-06-26T10:32:45;38.90;28.00
21171;DHT22;10743;52.160;20.910;2023-06-26T10:35:14;38.90;27.70
21171;DHT22;10743;52.160;20.910;2023-06-26T10:37:45;38.90;28.10
21171;DHT22;10743;52.160;20.910;2023-06-26T10:40:26;38.90;27.70
21171;DHT22;10743;52.160;20.910;2023-06-26T10:43:07;39.00;27.90
21171;DHT22;10743;52.160;20.910;2023-06-26T10:45:36;39.00;26.90
21171;DHT22;10743;52.160;20.910;2023-06-26T10:48:04;39.10;27.30
21171;DHT22;10743;52.160;20.910;2023-06-26T10:50:32;39.00;26.60
21171;DHT22;10743;52.160;20.910;2023-06-26T10:56:03;39.00;27.60
21171;DHT22;10743;52.160;20.910;2023-06-26T11:01:25;39.00;27.20
21171;DHT22;10743;52.160;20.910;2023-06-26T11:06:26;39.00;26.90
21171;DHT22;10743;52.160;20.910;2023-06-26T11:09:06;39.00;27.40
21171;DHT22;10743;52.160;20.910;2023-06-26T11:14:26;39.10;27.20
21171;DHT22;10743;52.160;20.910;2023-06-26T11:16:57;39.10;27.30
21171;DHT22;10743;52.160;20.910;2023-06-26T11:19:26;39.10;27.00
21171;DHT22;10743;52.160;20.910;2023-06-26T11:22:13;39.20;27.10
21171;DHT22;10743;52.160;20.910;2023-06-26T11:24:43;39.30;26.90
21171;DHT22;10743;52.160;20.910;2023-06-26T11:27:10;39.20;27.00
21171;DHT22;10743;52.160;20.910;2023-06-26T11:29:37;39.30;27.00
21171;DHT22;10743;52.160;20.910;2023-06-26T11:32:05;39.30;26.70
21171;DHT22;10743;52.160;20.910;2023-06-26T11:34:33;39.30;26.30
21171;DHT22;10743;52.160;20.910;2023-06-26T11:37:01;39.30;26.50
21171;DHT22;10743;52.160;20.910;2023-06-26T11:39:28;39.30;27.10
21171;DHT22;10743;52.160;20.910;2023-06-26T11:41:56;39.40;26.70
21171;DHT22;10743;52.160;20.910;2023-06-26T11:44:23;39.40;26.80
21171;DHT22;10743;52.160;20.910;2023-06-26T11:46:54;39.50;27.00
21171;DHT22;10743;52.160;20.910;2023-06-26T11:49:22;39.50;26.70
21171;DHT22;10743;52.160;20.910;2023-06-26T11:51:53;39.60;26.50
21171;DHT22;10743;52.160;20.910;2023-06-26T11:54:26;39.70;26.30
21171;DHT22;10743;52.160;20.910;2023-06-26T11:56:55;39.70;26.30
21171;DHT22;10743;52.160;20.910;2023-06-26T11:59:24;39.70;26.60
21171;DHT22;10743;52.160;20.910;2023-06-26T12:02:00;39.70;26.10
21171;DHT22;10743;52.160;20.910;2023-06-26T12:04:31;39.70;26.50
21171;DHT22;10743;52.160;20.910;2023-06-26T12:06:59;39.60;26.50
21171;DHT22;10743;52.160;20.910;2023-06-26T12:09:27;39.60;26.60
21171;DHT22;10743;52.160;20.910;2023-06-26T12:11:55;39.50;26.20
21171;DHT22;10743;52.160;20.910;2023-06-26T12:14:24;39.50;26.60
21171;DHT22;10743;52.160;20.910;2023-06-26T12:16:53;39.40;26.10
21171;DHT22;10743;52.160;20.910;2023-06-26T12:19:25;39.50;27.00
21171;DHT22;10743;52.160;20.910;2023-06-26T12:21:55;39.40;26.40
21171;DHT22;10743;52.160;20.910;2023-06-26T12:24:23;39.40;25.80
21171;DHT22;10743;52.160;20.910;2023-06-26T12:26:54;39.40;26.00
21171;DHT22;10743;52.160;20.910;2023-06-26T12:29:32;39.40;24.90
21171;DHT22;10743;52.160;20.910;2023-06-26T12:32:00;39.40;25.40
21171;DHT22;10743;52.160;20.910;2023-06-26T12:34:32;39.50;26.10
21171;DHT22;10743;52.160;20.910;2023-06-26T12:37:06;39.50;25.90
21171;DHT22;10743;52.160;20.910;2023-06-26T12:40:17;39.60;25.30
21171;DHT22;10743;52.160;20.910;2023-06-26T12:42:46;39.70;25.20
21171;DHT22;10743;52.160;20.910;2023-06-26T12:45:14;39.80;25.10
21171;DHT22;10743;52.160;20.910;2023-06-26T12:48:10;39.80;24.60
21171;DHT22;10743;52.160;20.910;2023-06-26T12:50:44;40.00;24.30
21171;DHT22;10743;52.160;20.910;2023-06-26T12:53:15;40.00;24.90
21171;DHT22;10743;52.160;20.910;2023-06-26T12:55:42;40.10;24.20
21171;DHT22;10743;52.160;20.910;2023-06-26T12:58:09;40.10;24.70
21171;DHT22;10743;52.160;20.910;2023-06-26T13:00:39;40.10;24.60
21171;DHT22;10743;52.160;20.910;2023-06-26T13:03:08;40.10;24.60
21171;DHT22;10743;52.160;20.910;2023-06-26T13:05:37;40.10;25.30
21171;DHT22;10743;52.160;20.910;2023-06-26T13:08:04;40.20;24.50
21171;DHT22;10743;52.160;20.910;2023-06-26T13:10:32;40.30;24.90
21171;DHT22;10743;52.160;20.910;2023-06-26T13:12:59;40.30;24.80
21171;DHT22;10743;52.160;20.910;2023-06-26T13:15:27;40.40;24.40
21171;DHT22;10743;52.160;20.910;2023-06-26T13:17:55;40.40;24.60
21171;DHT22;10743;52.160;20.910;2023-06-26T13:20:22;40.40;25.40
21171;DHT22;10743;52.160;20.910;2023-06-26T13:22:49;40.50;24.40
21171;DHT22;10743;52.160;20.910;2023-06-26T13:25:16;40.50;24.30
21171;DHT22;10743;52.160;20.910;2023-06-26T13:27:43;40.60;23.80
21171;DHT22;10743;52.160;20.910;2023-06-26T13:30:10;40.70;24.20
21171;DHT22;10743;52.160;20.910;2023-06-26T13:32:38;40.70;24.50
21171;DHT22;10743;52.160;20.910;2023-06-26T13:35:05;40.70;24.50
21171;DHT22;10743;52.160;20.910;2023-06-26T13:37:33;40.70;23.90
21171;DHT22;10743;52.160;20.910;2023-06-26T13:40:01;40.70;24.50
21171;DHT22;10743;52.160;20.910;2023-06-26T13:42:29;40.70;24.70
21171;DHT22;10743;52.160;20.910;2023-06-26T13:44:56;40.70;24.30
21171;DHT22;10743;52.160;20.910;2023-06-26T13:47:33;40.70;24.30
21171;DHT22;10743;52.160;20.910;2023-06-26T13:50:01;40.70;23.90
21171;DHT22;10743;52.160;20.910;2023-06-26T13:52:28;40.70;24.50
21171;DHT22;10743;52.160;20.910;2023-06-26T13:54:55;40.60;24.50
21171;DHT22;10743;52.160;20.910;2023-06-26T13:57:22;40.50;24.90
21171;DHT22;10743;52.160;20.910;2023-06-26T13:59:50;40.50;24.90
21171;DHT22;10743;52.160;20.910;2023-06-26T14:02:17;40.50;25.00
21171;DHT22;10743;52.160;20.910;2023-06-26T14:04:44;40.50;24.10
21171;DHT22;10743;52.160;20.910;2023-06-26T14:07:11;40.50;23.90
21171;DHT22;10743;52.160;20.910;2023-06-26T14:09:38;40.50;23.60
21171;DHT22;10743;52.160;20.910;2023-06-26T14:12:06;40.50;24.30
21171;DHT22;10743;52.160;20.910;2023-06-26T14:14:34;40.40;24.90
21171;DHT22;10743;52.160;20.910;2023-06-26T14:17:01;40.40;24.60
21171;DHT22;10743;52.160;20.910;2023-06-26T14:19:29;40.40;23.70
21171;DHT22;10743;52.160;20.910;2023-06-26T14:21:56;40.40;23.60
21171;DHT22;10743;52.160;20.910;2023-06-26T14:24:23;40.40;23.90
21171;DHT22;10743;52.160;20.910;2023-06-26T14:26:50;40.40;23.80
21171;DHT22;10743;52.160;20.910;2023-06-26T14:29:17;40.40;24.80
21171;DHT22;10743;52.160;20.910;2023-06-26T14:31:45;40.40;24.40
21171;DHT22;10743;52.160;20.910;2023-06-26T14:34:16;40.30;24.30
21171;DHT22;10743;52.160;20.910;2023-06-26T14:36:43;40.30;24.20
21171;DHT22;10743;52.160;20.910;2023-06-26T14:39:10;40.30;24.40
21171;DHT22;10743;52.160;20.910;2023-06-26T14:41:38;40.30;24.90
21171;DHT22;10743;52.160;20.910;2023-06-26T14:44:05;40.20;24.70
21171;DHT22;10743;52.160;20.910;2023-06-26T14:46:35;40.20;24.40
21171;DHT22;10743;52.160;20.910;2023-06-26T14:49:03;40.20;24.40
21171;DHT22;10743;52.160;20.910;2023-06-26T14:51:30;40.20;24.60
21171;DHT22;10743;52.160;20.910;2023-06-26T14:53:57;40.20;24.20
21171;DHT22;10743;52.160;20.910;2023-06-26T14:56:24;40.20;23.80
21171;DHT22;10743;52.160;20.910;2023-06-26T14:58:52;40.20;24.40
21171;DHT22;10743;52.160;20.910;2023-06-26T15:01:19;40.10;25.20
21171;DHT22;10743;52.160;20.910;2023-06-26T15:03:47;40.10;25.00
21171;DHT22;10743;52.160;20.910;2023-06-26T15:06:14;40.10;25.00
21171;DHT22;10743;52.160;20.910;2023-06-26T15:08:41;40.10;24.70
21171;DHT22;10743;52.160;20.910;2023-06-26T15:11:08;40.10;25.20
21171;DHT22;10743;52.160;20.910;2023-06-26T15:13:35;40.00;24.60
21171;DHT22;10743;52.160;20.910;2023-06-26T15:16:03;40.00;24.30
21171;DHT22;10743;52.160;20.910;2023-06-26T15:18:30;40.00;24.90
21171;DHT22;10743;52.160;20.910;2023-06-26T15:20:57;40.00;25.10
21171;DHT22;10743;52.160;20.910;2023-06-26T15:23:24;40.00;24.80
21171;DHT22;10743;52.160;20.910;2023-06-26T15:25:51;40.00;25.20
21171;DHT22;10743;52.160;20.910;2023-06-26T15:28:18;40.00;25.10
21171;DHT22;10743;52.160;20.910;2023-06-26T15:30:45;39.90;24.80
21171;DHT22;10743;52.160;20.910;2023-06-26T15:33:13;39.90;24.80
21171;DHT22;10743;52.160;20.910;2023-06-26T15:35:40;39.90;24.50
21171;DHT22;10743;52.160;20.910;2023-06-26T15:38:07;39.90;24.80
21171;DHT22;10743;52.160;20.910;2023-06-26T15:40:34;39.80;24.80